Terminal Aerodrome Forecast
Issued by NWS

Home | Current Version | Previous Version | Text Only | Print | Product List | Glossary Off
Versions: 1 2 3 4 5 6 7 8 9 10 11 12

000
FTUS45 KGGW 282300
TAFOLF
TAF
KOLF 282320Z 2900/2924 VRB03KT P6SM SCT200
     FM290700 09004KT P6SM BKN080
     FM291800 28017G27KT P6SM BKN050=

USA.gov is the U.S. government's official web portal to all federal, state and local government web resources and services.